sensor_id;sensor_type;location;lat;lon;timestamp;pressure;altitude;pressure_sealevel;temperature;humidity
12793;BME280;6460;42.684;23.260;2024-03-22T00:03:23;94632.78;;;8.16;47.06
12793;BME280;6460;42.684;23.260;2024-03-22T00:29:58;94621.09;;;7.96;48.19
12793;BME280;6460;42.684;23.260;2024-03-22T00:36:19;94632.38;;;7.41;51.20
12793;BME280;6460;42.684;23.260;2024-03-22T00:42:18;94631.59;;;6.84;53.95
12793;BME280;6460;42.684;23.260;2024-03-22T00:45:03;94640.00;;;7.07;53.63
12793;BME280;6460;42.684;23.260;2024-03-22T00:47:29;94636.78;;;7.01;54.30
12793;BME280;6460;42.684;23.260;2024-03-22T00:49:56;94637.50;;;7.34;52.79
12793;BME280;6460;42.684;23.260;2024-03-22T01:23:49;94643.97;;;6.35;57.23
12793;BME280;6460;42.684;23.260;2024-03-22T02:11:24;94625.38;;;6.26;55.38
12793;BME280;6460;42.684;23.260;2024-03-22T02:13:52;94628.91;;;6.18;56.53
12793;BME280;6460;42.684;23.260;2024-03-22T02:16:28;94625.44;;;5.97;56.61
12793;BME280;6460;42.684;23.260;2024-03-22T02:19:04;94623.97;;;6.08;56.46
12793;BME280;6460;42.684;23.260;2024-03-22T02:21:30;94628.25;;;6.21;56.05
12793;BME280;6460;42.684;23.260;2024-03-22T02:23:59;94631.63;;;5.89;57.42
12793;BME280;6460;42.684;23.260;2024-03-22T02:26:42;94633.19;;;5.90;58.08
12793;BME280;6460;42.684;23.260;2024-03-22T02:29:09;94617.69;;;5.83;57.82
12793;BME280;6460;42.684;23.260;2024-03-22T02:31:35;94630.13;;;6.00;56.62
12793;BME280;6460;42.684;23.260;2024-03-22T02:37:16;94635.84;;;6.11;58.63
12793;BME280;6460;42.684;23.260;2024-03-22T02:39:45;94640.22;;;6.15;58.26
12793;BME280;6460;42.684;23.260;2024-03-22T02:45:16;94636.81;;;6.06;59.05
12793;BME280;6460;42.684;23.260;2024-03-22T02:47:55;94641.13;;;6.19;57.69
12793;BME280;6460;42.684;23.260;2024-03-22T02:50:22;94649.75;;;6.25;56.25
12793;BME280;6460;42.684;23.260;2024-03-22T02:52:51;94648.03;;;6.20;58.12
12793;BME280;6460;42.684;23.260;2024-03-22T02:55:19;94653.38;;;6.00;60.32
12793;BME280;6460;42.684;23.260;2024-03-22T02:57:45;94654.09;;;6.09;60.72
12793;BME280;6460;42.684;23.260;2024-03-22T03:00:39;94659.22;;;6.14;59.96
12793;BME280;6460;42.684;23.260;2024-03-22T03:03:07;94658.31;;;6.10;60.01
12793;BME280;6460;42.684;23.260;2024-03-22T03:05:35;94674.56;;;5.96;59.79
12793;BME280;6460;42.684;23.260;2024-03-22T03:08:01;94666.22;;;5.98;60.33
12793;BME280;6460;42.684;23.260;2024-03-22T03:10:30;94666.06;;;5.65;61.67
12793;BME280;6460;42.684;23.260;2024-03-22T03:12:56;94658.72;;;5.32;64.86
12793;BME280;6460;42.684;23.260;2024-03-22T03:15:23;94674.50;;;5.75;63.97
12793;BME280;6460;42.684;23.260;2024-03-22T03:18:23;94676.81;;;5.48;64.42
12793;BME280;6460;42.684;23.260;2024-03-22T03:24:16;94673.81;;;5.58;64.09
12793;BME280;6460;42.684;23.260;2024-03-22T03:26:44;94678.84;;;5.51;64.73
12793;BME280;6460;42.684;23.260;2024-03-22T03:54:14;94709.75;;;5.52;65.11
12793;BME280;6460;42.684;23.260;2024-03-22T04:17:26;94723.47;;;5.24;67.80
12793;BME280;6460;42.684;23.260;2024-03-22T04:30:07;94732.91;;;4.10;73.24
12793;BME280;6460;42.684;23.260;2024-03-22T04:36:12;94725.13;;;4.40;73.50
12793;BME280;6460;42.684;23.260;2024-03-22T04:42:18;94732.47;;;4.77;73.12
12793;BME280;6460;42.684;23.260;2024-03-22T04:44:45;94735.75;;;4.91;72.96
12793;BME280;6460;42.684;23.260;2024-03-22T04:47:12;94740.41;;;5.11;71.90
12793;BME280;6460;42.684;23.260;2024-03-22T04:49:42;94745.41;;;5.21;71.18
12793;BME280;6460;42.684;23.260;2024-03-22T04:55:57;94750.75;;;5.04;71.44
12793;BME280;6460;42.684;23.260;2024-03-22T05:01:51;94754.84;;;4.93;72.23
12793;BME280;6460;42.684;23.260;2024-03-22T05:04:19;94751.25;;;5.06;72.41
12793;BME280;6460;42.684;23.260;2024-03-22T05:06:45;94747.47;;;5.16;72.28
12793;BME280;6460;42.684;23.260;2024-03-22T05:19:18;94750.53;;;5.44;71.43
12793;BME280;6460;42.684;23.260;2024-03-22T05:21:45;94760.84;;;5.54;70.86
12793;BME280;6460;42.684;23.260;2024-03-22T05:24:11;94764.69;;;5.18;71.86
12793;BME280;6460;42.684;23.260;2024-03-22T05:26:38;94766.88;;;5.25;72.24
12793;BME280;6460;42.684;23.260;2024-03-22T05:29:11;94770.88;;;5.57;70.58
12793;BME280;6460;42.684;23.260;2024-03-22T05:31:47;94775.00;;;5.92;69.45
12793;BME280;6460;42.684;23.260;2024-03-22T05:34:13;94770.97;;;6.15;67.71
12793;BME280;6460;42.684;23.260;2024-03-22T05:36:43;94769.31;;;6.31;66.33
12793;BME280;6460;42.684;23.260;2024-03-22T05:39:09;94774.81;;;6.26;66.64
12793;BME280;6460;42.684;23.260;2024-03-22T05:41:45;94779.69;;;6.54;66.01
12793;BME280;6460;42.684;23.260;2024-03-22T05:44:11;94785.41;;;6.64;66.49
12793;BME280;6460;42.684;23.260;2024-03-22T05:46:38;94774.47;;;6.78;66.37
12793;BME280;6460;42.684;23.260;2024-03-22T05:49:26;94775.66;;;6.89;66.05
12793;BME280;6460;42.684;23.260;2024-03-22T05:51:54;94781.94;;;7.05;64.53
12793;BME280;6460;42.684;23.260;2024-03-22T05:54:43;94788.38;;;7.25;63.44
12793;BME280;6460;42.684;23.260;2024-03-22T05:57:11;94787.41;;;7.29;62.25
12793;BME280;6460;42.684;23.260;2024-03-22T05:59:37;94783.88;;;7.37;62.36
12793;BME280;6460;42.684;23.260;2024-03-22T06:02:05;94779.38;;;7.29;62.80
12793;BME280;6460;42.684;23.260;2024-03-22T06:04:31;94792.00;;;7.41;61.78
12793;BME280;6460;42.684;23.260;2024-03-22T06:06:59;94791.31;;;7.65;60.46
12793;BME280;6460;42.684;23.260;2024-03-22T06:09:26;94783.53;;;7.84;59.24
12793;BME280;6460;42.684;23.260;2024-03-22T06:12:04;94779.31;;;7.95;57.53
12793;BME280;6460;42.684;23.260;2024-03-22T06:14:30;94781.66;;;8.09;57.03
12793;BME280;6460;42.684;23.260;2024-03-22T06:16:57;94781.66;;;8.21;55.50
12793;BME280;6460;42.684;23.260;2024-03-22T06:19:23;94780.47;;;8.30;53.56
12793;BME280;6460;42.684;23.260;2024-03-22T06:21:51;94787.25;;;8.40;53.09
12793;BME280;6460;42.684;23.260;2024-03-22T06:24:18;94787.38;;;8.43;52.41
12793;BME280;6460;42.684;23.260;2024-03-22T06:26:45;94780.66;;;8.49;52.28
12793;BME280;6460;42.684;23.260;2024-03-22T06:29:12;94788.38;;;8.63;51.63
12793;BME280;6460;42.684;23.260;2024-03-22T06:31:39;94782.19;;;8.75;49.90
12793;BME280;6460;42.684;23.260;2024-03-22T06:34:12;94787.34;;;8.80;50.25
12793;BME280;6460;42.684;23.260;2024-03-22T06:36:41;94789.44;;;8.86;48.64
12793;BME280;6460;42.684;23.260;2024-03-22T06:39:07;94787.09;;;8.85;47.95
12793;BME280;6460;42.684;23.260;2024-03-22T06:41:37;94787.38;;;9.08;47.01
12793;BME280;6460;42.684;23.260;2024-03-22T06:44:03;94788.25;;;9.12;46.57
12793;BME280;6460;42.684;23.260;2024-03-22T06:46:30;94791.47;;;9.17;46.71
12793;BME280;6460;42.684;23.260;2024-03-22T06:48:57;94789.53;;;9.30;46.90
12793;BME280;6460;42.684;23.260;2024-03-22T06:51:40;94795.88;;;9.37;45.57
12793;BME280;6460;42.684;23.260;2024-03-22T06:54:06;94801.75;;;9.43;45.50
12793;BME280;6460;42.684;23.260;2024-03-22T06:56:53;94800.22;;;9.57;45.40
12793;BME280;6460;42.684;23.260;2024-03-22T06:59:19;94802.00;;;9.66;44.83
12793;BME280;6460;42.684;23.260;2024-03-22T07:05:21;94801.84;;;9.90;45.47
12793;BME280;6460;42.684;23.260;2024-03-22T07:07:53;94805.59;;;9.85;44.96
12793;BME280;6460;42.684;23.260;2024-03-22T07:10:56;94811.19;;;9.80;46.11
12793;BME280;6460;42.684;23.260;2024-03-22T07:13:56;94815.19;;;10.02;45.51
12793;BME280;6460;42.684;23.260;2024-03-22T07:16:24;94804.72;;;10.13;45.86
12793;BME280;6460;42.684;23.260;2024-03-22T07:18:50;94811.19;;;10.24;44.85
12793;BME280;6460;42.684;23.260;2024-03-22T07:21:17;94810.91;;;10.44;43.97
12793;BME280;6460;42.684;23.260;2024-03-22T07:23:45;94810.47;;;10.58;43.59
12793;BME280;6460;42.684;23.260;2024-03-22T07:26:19;94811.63;;;10.76;43.86
12793;BME280;6460;42.684;23.260;2024-03-22T07:29:06;94814.56;;;10.87;42.94
12793;BME280;6460;42.684;23.260;2024-03-22T07:31:36;94809.69;;;10.92;42.72
12793;BME280;6460;42.684;23.260;2024-03-22T07:37:28;94805.09;;;10.93;43.23
12793;BME280;6460;42.684;23.260;2024-03-22T07:39:55;94807.09;;;11.15;43.03
12793;BME280;6460;42.684;23.260;2024-03-22T07:42:21;94795.41;;;11.07;44.16
12793;BME280;6460;42.684;23.260;2024-03-22T07:59:17;94805.28;;;12.22;41.60
12793;BME280;6460;42.684;23.260;2024-03-22T08:08:18;94799.63;;;14.39;65.29
12793;BME280;6460;42.684;23.260;2024-03-22T08:10:58;94802.25;;;14.32;37.65
12793;BME280;6460;42.684;23.260;2024-03-22T08:13:25;94798.66;;;13.81;36.96
12793;BME280;6460;42.684;23.260;2024-03-22T08:15:53;94787.94;;;13.54;37.57
12793;BME280;6460;42.684;23.260;2024-03-22T08:18:20;94792.47;;;13.43;37.87
12793;BME280;6460;42.684;23.260;2024-03-22T08:20:51;94794.44;;;13.46;37.24
12793;BME280;6460;42.684;23.260;2024-03-22T08:23:19;94789.47;;;13.52;37.48
12793;BME280;6460;42.684;23.260;2024-03-22T08:25:46;94793.56;;;13.72;36.49
12793;BME280;6460;42.684;23.260;2024-03-22T08:28:13;94793.00;;;13.93;36.77
12793;BME280;6460;42.684;23.260;2024-03-22T08:30:50;94794.63;;;14.01;36.01
12793;BME280;6460;42.684;23.260;2024-03-22T08:33:20;94799.88;;;13.87;36.34
12793;BME280;6460;42.684;23.260;2024-03-22T08:35:47;94795.19;;;14.20;34.67
12793;BME280;6460;42.684;23.260;2024-03-22T08:38:15;94786.38;;;14.74;34.39
12793;BME280;6460;42.684;23.260;2024-03-22T08:44:21;94788.56;;;14.14;35.54
12793;BME280;6460;42.684;23.260;2024-03-22T08:46:48;94799.22;;;14.84;34.13
12793;BME280;6460;42.684;23.260;2024-03-22T08:49:18;94793.97;;;14.14;34.40
12793;BME280;6460;42.684;23.260;2024-03-22T08:51:45;94793.19;;;15.09;34.47
12793;BME280;6460;42.684;23.260;2024-03-22T08:54:18;94800.84;;;15.00;34.73
12793;BME280;6460;42.684;23.260;2024-03-22T09:05:02;94793.25;;;15.23;33.07
12793;BME280;6460;42.684;23.260;2024-03-22T09:07:30;94796.94;;;15.59;32.31
12793;BME280;6460;42.684;23.260;2024-03-22T09:13:21;94783.22;;;15.23;32.20
12793;BME280;6460;42.684;23.260;2024-03-22T09:15:48;94774.34;;;15.30;32.79
12793;BME280;6460;42.684;23.260;2024-03-22T09:18:20;94777.94;;;15.52;32.60
12793;BME280;6460;42.684;23.260;2024-03-22T09:20:49;94774.13;;;15.63;31.61
12793;BME280;6460;42.684;23.260;2024-03-22T09:23:43;94759.47;;;15.96;31.73
12793;BME280;6460;42.684;23.260;2024-03-22T09:26:10;94760.25;;;15.97;31.94
12793;BME280;6460;42.684;23.260;2024-03-22T09:28:36;94760.28;;;16.25;31.80
12793;BME280;6460;42.684;23.260;2024-03-22T09:31:04;94763.41;;;16.23;31.90
12793;BME280;6460;42.684;23.260;2024-03-22T09:33:31;94759.38;;;15.61;31.67
12793;BME280;6460;42.684;23.260;2024-03-22T09:36:00;94756.03;;;16.27;30.79
12793;BME280;6460;42.684;23.260;2024-03-22T09:38:27;94761.47;;;16.17;31.31
12793;BME280;6460;42.684;23.260;2024-03-22T09:40:54;94757.97;;;16.45;31.12
12793;BME280;6460;42.684;23.260;2024-03-22T09:43:21;94756.41;;;16.43;30.84
12793;BME280;6460;42.684;23.260;2024-03-22T09:45:50;94757.56;;;16.21;30.74
12793;BME280;6460;42.684;23.260;2024-03-22T09:48:18;94758.72;;;16.06;31.78
12793;BME280;6460;42.684;23.260;2024-03-22T09:50:45;94752.91;;;16.15;31.28
12793;BME280;6460;42.684;23.260;2024-03-22T09:53:17;94759.50;;;16.00;31.50
12793;BME280;6460;42.684;23.260;2024-03-22T09:55:44;94751.00;;;16.05;31.31
12793;BME280;6460;42.684;23.260;2024-03-22T09:58:13;94748.66;;;16.07;31.20
12793;BME280;6460;42.684;23.260;2024-03-22T10:00:40;94748.69;;;16.35;31.52
12793;BME280;6460;42.684;23.260;2024-03-22T10:03:07;94738.22;;;16.23;30.92
12793;BME280;6460;42.684;23.260;2024-03-22T10:05:34;94733.91;;;15.86;32.24
12793;BME280;6460;42.684;23.260;2024-03-22T10:08:02;94730.47;;;16.25;31.13
12793;BME280;6460;42.684;23.260;2024-03-22T10:10:30;94735.13;;;16.63;30.77
12793;BME280;6460;42.684;23.260;2024-03-22T10:13:00;94733.59;;;16.62;30.92
12793;BME280;6460;42.684;23.260;2024-03-22T10:15:26;94730.47;;;16.64;30.69
12793;BME280;6460;42.684;23.260;2024-03-22T10:17:54;94734.72;;;15.98;31.76
12793;BME280;6460;42.684;23.260;2024-03-22T10:20:25;94730.84;;;16.66;30.62
12793;BME280;6460;42.684;23.260;2024-03-22T10:22:56;94726.88;;;17.20;30.17
12793;BME280;6460;42.684;23.260;2024-03-22T10:25:23;94726.78;;;17.44;30.03
12793;BME280;6460;42.684;23.260;2024-03-22T10:27:53;94726.78;;;17.41;29.52
12793;BME280;6460;42.684;23.260;2024-03-22T10:30:24;94728.72;;;18.17;28.57
12793;BME280;6460;42.684;23.260;2024-03-22T10:32:53;94714.75;;;18.11;28.03
12793;BME280;6460;42.684;23.260;2024-03-22T10:35:20;94720.06;;;17.74;28.55
12793;BME280;6460;42.684;23.260;2024-03-22T10:37:48;94709.53;;;17.79;28.12
12793;BME280;6460;42.684;23.260;2024-03-22T10:40:14;94710.16;;;17.25;29.50
12793;BME280;6460;42.684;23.260;2024-03-22T10:42:42;94704.06;;;16.82;29.71
12793;BME280;6460;42.684;23.260;2024-03-22T10:45:12;94703.69;;;16.90;29.23
12793;BME280;6460;42.684;23.260;2024-03-22T10:47:39;94697.00;;;17.16;30.01
12793;BME280;6460;42.684;23.260;2024-03-22T10:50:07;94690.91;;;17.74;28.92
12793;BME280;6460;42.684;23.260;2024-03-22T10:52:38;94693.69;;;18.19;28.07
12793;BME280;6460;42.684;23.260;2024-03-22T10:55:08;94692.13;;;18.25;27.81
12793;BME280;6460;42.684;23.260;2024-03-22T10:57:38;94688.78;;;18.55;27.70
12793;BME280;6460;42.684;23.260;2024-03-22T11:00:10;94682.81;;;18.67;27.44
12793;BME280;6460;42.684;23.260;2024-03-22T11:02:38;94677.34;;;18.70;27.48
12793;BME280;6460;42.684;23.260;2024-03-22T11:05:04;94677.94;;;17.27;28.04
12793;BME280;6460;42.684;23.260;2024-03-22T11:07:32;94673.13;;;18.66;27.28
12793;BME280;6460;42.684;23.260;2024-03-22T11:10:00;94664.34;;;19.19;26.81
12793;BME280;6460;42.684;23.260;2024-03-22T11:12:29;94665.50;;;18.87;26.72
12793;BME280;6460;42.684;23.260;2024-03-22T11:14:59;94672.59;;;19.49;27.37
12793;BME280;6460;42.684;23.260;2024-03-22T11:17:28;94659.31;;;19.51;26.90
12793;BME280;6460;42.684;23.260;2024-03-22T11:19:55;94658.41;;;20.11;26.30
12793;BME280;6460;42.684;23.260;2024-03-22T11:22:22;94658.69;;;19.67;25.22
12793;BME280;6460;42.684;23.260;2024-03-22T11:24:48;94660.47;;;19.20;25.57
12793;BME280;6460;42.684;23.260;2024-03-22T11:27:16;94662.00;;;18.49;26.38
12793;BME280;6460;42.684;23.260;2024-03-22T11:29:42;94660.47;;;17.31;28.18
12793;BME280;6460;42.684;23.260;2024-03-22T11:32:11;94657.44;;;17.08;28.42
12793;BME280;6460;42.684;23.260;2024-03-22T11:34:39;94665.59;;;17.84;28.04
12793;BME280;6460;42.684;23.260;2024-03-22T11:37:07;94663.41;;;18.17;26.94
12793;BME280;6460;42.684;23.260;2024-03-22T11:39:37;94657.44;;;18.36;25.79
12793;BME280;6460;42.684;23.260;2024-03-22T11:42:05;94654.28;;;17.93;27.07
12793;BME280;6460;42.684;23.260;2024-03-22T11:44:32;94655.41;;;17.33;28.81
12793;BME280;6460;42.684;23.260;2024-03-22T11:47:00;94643.75;;;17.33;27.49
12793;BME280;6460;42.684;23.260;2024-03-22T11:49:32;94647.59;;;17.39;27.70
12793;BME280;6460;42.684;23.260;2024-03-22T11:52:05;94648.16;;;17.78;27.38
12793;BME280;6460;42.684;23.260;2024-03-22T11:54:33;94646.25;;;16.96;27.77
12793;BME280;6460;42.684;23.260;2024-03-22T12:04:30;94628.94;;;17.48;27.20
12793;BME280;6460;42.684;23.260;2024-03-22T12:07:00;94617.47;;;17.19;27.33
12793;BME280;6460;42.684;23.260;2024-03-22T12:09:27;94618.16;;;17.27;27.43
12793;BME280;6460;42.684;23.260;2024-03-22T12:18:49;94610.13;;;18.23;26.45
12793;BME280;6460;42.684;23.260;2024-03-22T12:21:17;94613.22;;;18.66;26.00
12793;BME280;6460;42.684;23.260;2024-03-22T12:23:43;94616.50;;;18.84;26.82
12793;BME280;6460;42.684;23.260;2024-03-22T12:29:24;94596.34;;;19.69;24.30
12793;BME280;6460;42.684;23.260;2024-03-22T12:31:55;94598.22;;;18.84;24.27
12793;BME280;6460;42.684;23.260;2024-03-22T12:48:07;94582.25;;;18.49;25.01
12793;BME280;6460;42.684;23.260;2024-03-22T12:50:35;94584.25;;;18.45;25.38
12793;BME280;6460;42.684;23.260;2024-03-22T12:56:27;94581.66;;;18.34;26.25
12793;BME280;6460;42.684;23.260;2024-03-22T13:02:47;94571.75;;;19.95;24.35
12793;BME280;6460;42.684;23.260;2024-03-22T13:05:16;94559.78;;;20.13;24.23
12793;BME280;6460;42.684;23.260;2024-03-22T13:07:42;94562.44;;;19.93;24.45
12793;BME280;6460;42.684;23.260;2024-03-22T13:10:10;94564.94;;;20.30;23.96
12793;BME280;6460;42.684;23.260;2024-03-22T13:12:36;94559.94;;;20.48;23.63
12793;BME280;6460;42.684;23.260;2024-03-22T13:15:04;94557.91;;;20.72;22.78
12793;BME280;6460;42.684;23.260;2024-03-22T13:17:30;94565.06;;;21.05;22.67
12793;BME280;6460;42.684;23.260;2024-03-22T13:19:57;94559.72;;;20.59;23.13
12793;BME280;6460;42.684;23.260;2024-03-22T13:22:27;94557.53;;;21.29;22.60
12793;BME280;6460;42.684;23.260;2024-03-22T13:24:55;94562.25;;;20.89;22.21
12793;BME280;6460;42.684;23.260;2024-03-22T13:27:21;94554.78;;;20.54;22.77
12793;BME280;6460;42.684;23.260;2024-03-22T13:29:51;94551.44;;;20.43;22.59
12793;BME280;6460;42.684;23.260;2024-03-22T13:32:17;94548.75;;;20.20;23.12
12793;BME280;6460;42.684;23.260;2024-03-22T13:34:46;94544.94;;;19.67;23.51
12793;BME280;6460;42.684;23.260;2024-03-22T13:37:16;94545.38;;;19.89;23.72
12793;BME280;6460;42.684;23.260;2024-03-22T13:39:49;94543.06;;;19.87;23.85
12793;BME280;6460;42.684;23.260;2024-03-22T13:42:15;94550.78;;;20.39;23.68
12793;BME280;6460;42.684;23.260;2024-03-22T13:44:42;94537.47;;;20.80;23.45
12793;BME280;6460;42.684;23.260;2024-03-22T13:47:08;94538.16;;;20.84;22.69
12793;BME280;6460;42.684;23.260;2024-03-22T13:49:36;94539.28;;;20.47;23.45
12793;BME280;6460;42.684;23.260;2024-03-22T13:52:02;94536.13;;;20.29;23.81
12793;BME280;6460;42.684;23.260;2024-03-22T13:54:30;94530.38;;;19.77;23.83
12793;BME280;6460;42.684;23.260;2024-03-22T13:56:57;94526.41;;;19.59;24.17
12793;BME280;6460;42.684;23.260;2024-03-22T13:59:26;94526.41;;;19.59;23.93
12793;BME280;6460;42.684;23.260;2024-03-22T14:01:52;94532.09;;;19.41;23.67
12793;BME280;6460;42.684;23.260;2024-03-22T14:04:19;94518.16;;;19.35;24.29
12793;BME280;6460;42.684;23.260;2024-03-22T14:06:45;94523.41;;;17.87;24.03
12793;BME280;6460;42.684;23.260;2024-03-22T14:09:12;94515.81;;;18.46;24.11
12793;BME280;6460;42.684;23.260;2024-03-22T14:11:39;94507.19;;;18.85;24.46
12793;BME280;6460;42.684;23.260;2024-03-22T14:14:09;94506.50;;;20.04;23.12
12793;BME280;6460;42.684;23.260;2024-03-22T14:16:37;94512.75;;;20.68;22.79
12793;BME280;6460;42.684;23.260;2024-03-22T14:19:04;94504.91;;;20.30;22.64
12793;BME280;6460;42.684;23.260;2024-03-22T14:21:30;94500.69;;;20.26;22.78
12793;BME280;6460;42.684;23.260;2024-03-22T14:23:57;94511.00;;;19.72;22.76
12793;BME280;6460;42.684;23.260;2024-03-22T14:26:24;94509.16;;;19.65;22.63
12793;BME280;6460;42.684;23.260;2024-03-22T14:28:51;94495.97;;;19.83;21.91
12793;BME280;6460;42.684;23.260;2024-03-22T14:31:20;94494.75;;;20.31;21.43
12793;BME280;6460;42.684;23.260;2024-03-22T14:33:47;94491.34;;;20.23;22.38
12793;BME280;6460;42.684;23.260;2024-03-22T14:36:13;94497.75;;;19.47;21.83
12793;BME280;6460;42.684;23.260;2024-03-22T14:52:23;94489.56;;;19.47;24.24
12793;BME280;6460;42.684;23.260;2024-03-22T14:58:21;94482.72;;;19.62;24.48
12793;BME280;6460;42.684;23.260;2024-03-22T15:00:53;94483.00;;;19.44;23.61
12793;BME280;6460;42.684;23.260;2024-03-22T15:03:19;94486.56;;;19.65;23.68
12793;BME280;6460;42.684;23.260;2024-03-22T15:09:25;94489.34;;;20.27;22.87
12793;BME280;6460;42.684;23.260;2024-03-22T15:11:55;94487.81;;;20.46;23.04
12793;BME280;6460;42.684;23.260;2024-03-22T15:14:24;94490.34;;;20.56;22.56
12793;BME280;6460;42.684;23.260;2024-03-22T15:16:56;94488.94;;;20.68;22.38
12793;BME280;6460;42.684;23.260;2024-03-22T15:19:24;94485.09;;;21.01;21.41
12793;BME280;6460;42.684;23.260;2024-03-22T15:21:50;94482.00;;;20.83;21.70
12793;BME280;6460;42.684;23.260;2024-03-22T15:24:41;94474.97;;;20.03;22.16
12793;BME280;6460;42.684;23.260;2024-03-22T15:27:09;94485.78;;;19.64;22.86
12793;BME280;6460;42.684;23.260;2024-03-22T15:29:34;94484.06;;;19.50;22.30
12793;BME280;6460;42.684;23.260;2024-03-22T15:32:02;94479.94;;;19.39;22.90
12793;BME280;6460;42.684;23.260;2024-03-22T15:34:29;94480.94;;;19.25;23.22
12793;BME280;6460;42.684;23.260;2024-03-22T15:36:57;94480.25;;;19.18;23.64
12793;BME280;6460;42.684;23.260;2024-03-22T15:39:23;94482.84;;;19.01;23.33
12793;BME280;6460;42.684;23.260;2024-03-22T15:42:13;94487.84;;;18.76;24.26
12793;BME280;6460;42.684;23.260;2024-03-22T15:44:58;94481.59;;;18.79;24.17
12793;BME280;6460;42.684;23.260;2024-03-22T15:47:29;94485.75;;;18.57;24.16
12793;BME280;6460;42.684;23.260;2024-03-22T15:49:56;94485.91;;;18.43;24.72
12793;BME280;6460;42.684;23.260;2024-03-22T15:52:28;94485.47;;;18.48;25.34
12793;BME280;6460;42.684;23.260;2024-03-22T15:54:54;94491.63;;;18.22;25.04
12793;BME280;6460;42.684;23.260;2024-03-22T16:04:42;94505.00;;;18.06;25.48
12793;BME280;6460;42.684;23.260;2024-03-22T16:11:03;94502.16;;;17.75;25.75
12793;BME280;6460;42.684;23.260;2024-03-22T16:13:32;94496.06;;;17.64;25.99
12793;BME280;6460;42.684;23.260;2024-03-22T16:16:00;94493.38;;;17.06;26.70
12793;BME280;6460;42.684;23.260;2024-03-22T16:25:40;94500.47;;;16.85;27.71
12793;BME280;6460;42.684;23.260;2024-03-22T16:28:08;94503.59;;;16.87;27.53
12793;BME280;6460;42.684;23.260;2024-03-22T16:30:35;94514.47;;;16.80;27.63
12793;BME280;6460;42.684;23.260;2024-03-22T16:33:17;94519.34;;;16.23;28.54
12793;BME280;6460;42.684;23.260;2024-03-22T16:35:58;94522.13;;;15.77;29.06
12793;BME280;6460;42.684;23.260;2024-03-22T16:38:43;94531.03;;;15.78;29.72
12793;BME280;6460;42.684;23.260;2024-03-22T16:41:10;94526.03;;;15.55;29.79
12793;BME280;6460;42.684;23.260;2024-03-22T16:43:38;94522.50;;;15.23;29.92
12793;BME280;6460;42.684;23.260;2024-03-22T16:46:21;94531.31;;;14.81;31.31
12793;BME280;6460;42.684;23.260;2024-03-22T16:49:02;94534.44;;;13.97;32.45
12793;BME280;6460;42.684;23.260;2024-03-22T16:51:34;94527.63;;;14.27;32.26
12793;BME280;6460;42.684;23.260;2024-03-22T16:54:04;94535.75;;;14.27;32.87
12793;BME280;6460;42.684;23.260;2024-03-22T16:56:33;94549.50;;;14.05;32.82
12793;BME280;6460;42.684;23.260;2024-03-22T16:58:59;94550.47;;;13.75;33.40
12793;BME280;6460;42.684;23.260;2024-03-22T17:01:31;94550.97;;;13.37;33.82
12793;BME280;6460;42.684;23.260;2024-03-22T17:04:15;94557.47;;;13.29;34.13
12793;BME280;6460;42.684;23.260;2024-03-22T17:06:56;94558.13;;;13.19;34.05
12793;BME280;6460;42.684;23.260;2024-03-22T17:12:53;94558.59;;;13.28;34.65
12793;BME280;6460;42.684;23.260;2024-03-22T17:15:23;94557.75;;;13.17;34.67
12793;BME280;6460;42.684;23.260;2024-03-22T17:17:50;94570.50;;;13.20;34.17
12793;BME280;6460;42.684;23.260;2024-03-22T17:20:31;94568.06;;;12.74;35.09
12793;BME280;6460;42.684;23.260;2024-03-22T17:23:08;94575.44;;;12.81;35.20
12793;BME280;6460;42.684;23.260;2024-03-22T17:25:36;94578.66;;;12.60;35.46
12793;BME280;6460;42.684;23.260;2024-03-22T17:28:07;94596.41;;;12.61;36.97
12793;BME280;6460;42.684;23.260;2024-03-22T17:30:36;94597.00;;;13.11;44.09
12793;BME280;6460;42.684;23.260;2024-03-22T17:33:04;94593.41;;;13.40;42.57
12793;BME280;6460;42.684;23.260;2024-03-22T17:35:30;94599.63;;;13.44;50.24
12793;BME280;6460;42.684;23.260;2024-03-22T17:37:57;94614.22;;;14.35;67.31
12793;BME280;6460;42.684;23.260;2024-03-22T17:40:25;94604.00;;;14.82;56.97
12793;BME280;6460;42.684;23.260;2024-03-22T17:42:52;94605.25;;;15.17;53.90
12793;BME280;6460;42.684;23.260;2024-03-22T17:45:20;94600.31;;;15.61;55.75
12793;BME280;6460;42.684;23.260;2024-03-22T17:48:02;94605.75;;;16.14;56.03
12793;BME280;6460;42.684;23.260;2024-03-22T17:50:28;94604.94;;;16.35;51.36
12793;BME280;6460;42.684;23.260;2024-03-22T17:52:55;94616.97;;;16.16;44.14
12793;BME280;6460;42.684;23.260;2024-03-22T17:55:21;94609.13;;;16.54;49.51
12793;BME280;6460;42.684;23.260;2024-03-22T17:57:49;94611.09;;;16.60;45.62
12793;BME280;6460;42.684;23.260;2024-03-22T18:00:16;94611.53;;;16.30;37.19
12793;BME280;6460;42.684;23.260;2024-03-22T18:02:46;94612.72;;;15.94;33.11
12793;BME280;6460;42.684;23.260;2024-03-22T18:05:12;94616.06;;;15.03;33.59
12793;BME280;6460;42.684;23.260;2024-03-22T18:07:39;94627.81;;;14.45;34.00
12793;BME280;6460;42.684;23.260;2024-03-22T18:10:06;94620.28;;;14.21;34.54
12793;BME280;6460;42.684;23.260;2024-03-22T18:12:34;94627.59;;;13.69;35.37
12793;BME280;6460;42.684;23.260;2024-03-22T18:15:00;94625.00;;;13.36;35.43
12793;BME280;6460;42.684;23.260;2024-03-22T18:17:27;94621.47;;;13.29;35.98
12793;BME280;6460;42.684;23.260;2024-03-22T18:19:56;94630.75;;;12.98;36.52
12793;BME280;6460;42.684;23.260;2024-03-22T18:22:26;94631.59;;;13.05;36.36
12793;BME280;6460;42.684;23.260;2024-03-22T18:24:52;94621.38;;;12.88;36.68
12793;BME280;6460;42.684;23.260;2024-03-22T18:27:20;94623.56;;;12.76;36.97
12793;BME280;6460;42.684;23.260;2024-03-22T18:29:46;94621.94;;;12.71;37.10
12793;BME280;6460;42.684;23.260;2024-03-22T18:32:13;94622.97;;;12.59;37.15
12793;BME280;6460;42.684;23.260;2024-03-22T18:34:42;94633.09;;;12.40;37.58
12793;BME280;6460;42.684;23.260;2024-03-22T18:37:11;94622.84;;;12.23;37.80
12793;BME280;6460;42.684;23.260;2024-03-22T18:39:37;94622.28;;;12.36;37.81